sensor_id;sensor_type;location;lat;lon;timestamp;temperature;humidity
26541;DHT22;14206;50.202;10.948;2023-10-13T00:01:48;17.30;96.60
26541;DHT22;14206;50.202;10.948;2023-10-13T00:04:15;17.20;96.60
26541;DHT22;14206;50.202;10.948;2023-10-13T00:06:42;17.20;96.60
26541;DHT22;14206;50.202;10.948;2023-10-13T00:09:15;17.20;96.60
26541;DHT22;14206;50.202;10.948;2023-10-13T00:11:42;17.10;96.60
26541;DHT22;14206;50.202;10.948;2023-10-13T00:14:14;17.10;96.60
26541;DHT22;14206;50.202;10.948;2023-10-13T00:16:44;17.10;96.60
26541;DHT22;14206;50.202;10.948;2023-10-13T00:19:29;17.10;96.60
26541;DHT22;14206;50.202;10.948;2023-10-13T00:22:05;17.10;96.60
26541;DHT22;14206;50.202;10.948;2023-10-13T00:24:40;17.10;96.60
26541;DHT22;14206;50.202;10.948;2023-10-13T00:27:18;17.10;96.60
26541;DHT22;14206;50.202;10.948;2023-10-13T00:30:11;17.00;96.60
26541;DHT22;14206;50.202;10.948;2023-10-13T00:32:50;17.00;96.60
26541;DHT22;14206;50.202;10.948;2023-10-13T00:35:31;17.00;96.60
26541;DHT22;14206;50.202;10.948;2023-10-13T00:38:09;16.90;96.60
26541;DHT22;14206;50.202;10.948;2023-10-13T00:40:45;16.80;96.60
26541;DHT22;14206;50.202;10.948;2023-10-13T00:43:22;16.80;96.60
26541;DHT22;14206;50.202;10.948;2023-10-13T00:45:57;16.80;96.60
26541;DHT22;14206;50.202;10.948;2023-10-13T00:48:28;16.80;96.60
26541;DHT22;14206;50.202;10.948;2023-10-13T00:51:05;16.70;96.60
26541;DHT22;14206;50.202;10.948;2023-10-13T00:53:44;16.70;96.60
26541;DHT22;14206;50.202;10.948;2023-10-13T00:56:14;16.70;96.60
26541;DHT22;14206;50.202;10.948;2023-10-13T00:58:54;16.70;96.60
26541;DHT22;14206;50.202;10.948;2023-10-13T01:01:26;16.80;96.60
26541;DHT22;14206;50.202;10.948;2023-10-13T01:03:59;16.80;96.60
26541;DHT22;14206;50.202;10.948;2023-10-13T01:06:27;16.80;96.60
26541;DHT22;14206;50.202;10.948;2023-10-13T01:09:03;16.80;96.60
26541;DHT22;14206;50.202;10.948;2023-10-13T01:11:50;16.80;96.60
26541;DHT22;14206;50.202;10.948;2023-10-13T01:14:21;16.80;96.60
26541;DHT22;14206;50.202;10.948;2023-10-13T01:16:54;16.80;96.60
26541;DHT22;14206;50.202;10.948;2023-10-13T01:19:22;16.80;96.60
26541;DHT22;14206;50.202;10.948;2023-10-13T01:21:52;16.80;96.60
26541;DHT22;14206;50.202;10.948;2023-10-13T01:24:24;16.80;96.60
26541;DHT22;14206;50.202;10.948;2023-10-13T01:26:53;16.80;96.60
26541;DHT22;14206;50.202;10.948;2023-10-13T01:29:19;16.80;96.60
26541;DHT22;14206;50.202;10.948;2023-10-13T01:31:53;16.80;96.60
26541;DHT22;14206;50.202;10.948;2023-10-13T01:34:20;16.80;96.60
26541;DHT22;14206;50.202;10.948;2023-10-13T01:36:54;16.80;96.60
26541;DHT22;14206;50.202;10.948;2023-10-13T01:39:22;16.80;96.60
26541;DHT22;14206;50.202;10.948;2023-10-13T01:41:56;16.80;96.60
26541;DHT22;14206;50.202;10.948;2023-10-13T01:44:24;16.80;96.60
26541;DHT22;14206;50.202;10.948;2023-10-13T01:46:53;16.80;96.60
26541;DHT22;14206;50.202;10.948;2023-10-13T01:49:20;16.80;96.60
26541;DHT22;14206;50.202;10.948;2023-10-13T01:51:49;16.90;96.60
26541;DHT22;14206;50.202;10.948;2023-10-13T01:54:16;16.90;96.60
26541;DHT22;14206;50.202;10.948;2023-10-13T01:56:44;16.90;96.60
26541;DHT22;14206;50.202;10.948;2023-10-13T01:59:12;17.00;96.60
26541;DHT22;14206;50.202;10.948;2023-10-13T02:01:39;17.00;96.60
26541;DHT22;14206;50.202;10.948;2023-10-13T02:04:08;17.00;96.60
26541;DHT22;14206;50.202;10.948;2023-10-13T02:06:38;17.00;96.60
26541;DHT22;14206;50.202;10.948;2023-10-13T02:09:07;17.00;96.60
26541;DHT22;14206;50.202;10.948;2023-10-13T02:11:42;17.00;96.60
26541;DHT22;14206;50.202;10.948;2023-10-13T02:14:09;16.90;96.60
26541;DHT22;14206;50.202;10.948;2023-10-13T02:16:43;16.90;96.60
26541;DHT22;14206;50.202;10.948;2023-10-13T02:19:14;16.80;96.60
26541;DHT22;14206;50.202;10.948;2023-10-13T02:21:43;16.80;96.60
26541;DHT22;14206;50.202;10.948;2023-10-13T02:24:12;16.80;96.60
26541;DHT22;14206;50.202;10.948;2023-10-13T02:26:45;16.80;96.60
26541;DHT22;14206;50.202;10.948;2023-10-13T02:29:12;16.90;96.60
26541;DHT22;14206;50.202;10.948;2023-10-13T02:31:42;16.90;96.60
26541;DHT22;14206;50.202;10.948;2023-10-13T02:34:10;17.00;96.60
26541;DHT22;14206;50.202;10.948;2023-10-13T02:36:40;17.10;96.60
26541;DHT22;14206;50.202;10.948;2023-10-13T02:39:16;17.10;96.60
26541;DHT22;14206;50.202;10.948;2023-10-13T02:41:44;17.20;96.60
26541;DHT22;14206;50.202;10.948;2023-10-13T02:44:15;17.20;96.60
26541;DHT22;14206;50.202;10.948;2023-10-13T02:46:55;17.20;96.60
26541;DHT22;14206;50.202;10.948;2023-10-13T02:49:24;17.20;96.60
26541;DHT22;14206;50.202;10.948;2023-10-13T02:51:56;17.20;96.60
26541;DHT22;14206;50.202;10.948;2023-10-13T02:54:23;17.10;96.60
26541;DHT22;14206;50.202;10.948;2023-10-13T02:56:57;17.10;96.60
26541;DHT22;14206;50.202;10.948;2023-10-13T02:59:28;17.00;96.60
26541;DHT22;14206;50.202;10.948;2023-10-13T03:02:02;17.00;96.60
26541;DHT22;14206;50.202;10.948;2023-10-13T03:04:40;17.00;96.60
26541;DHT22;14206;50.202;10.948;2023-10-13T03:07:06;17.10;96.60
26541;DHT22;14206;50.202;10.948;2023-10-13T03:09:33;17.10;96.60
26541;DHT22;14206;50.202;10.948;2023-10-13T03:12:04;17.00;96.60
26541;DHT22;14206;50.202;10.948;2023-10-13T03:14:31;17.00;96.60
26541;DHT22;14206;50.202;10.948;2023-10-13T03:17:01;17.10;96.60
26541;DHT22;14206;50.202;10.948;2023-10-13T03:19:46;17.10;96.60
26541;DHT22;14206;50.202;10.948;2023-10-13T03:22:18;17.00;96.60
26541;DHT22;14206;50.202;10.948;2023-10-13T03:24:45;17.00;96.60
26541;DHT22;14206;50.202;10.948;2023-10-13T03:27:18;17.00;96.60
26541;DHT22;14206;50.202;10.948;2023-10-13T03:30:06;16.90;96.60
26541;DHT22;14206;50.202;10.948;2023-10-13T03:32:40;16.90;96.60
26541;DHT22;14206;50.202;10.948;2023-10-13T03:35:15;16.80;96.60
26541;DHT22;14206;50.202;10.948;2023-10-13T03:38:01;16.80;96.60
26541;DHT22;14206;50.202;10.948;2023-10-13T03:40:28;16.80;96.60
26541;DHT22;14206;50.202;10.948;2023-10-13T03:42:57;16.80;96.60
26541;DHT22;14206;50.202;10.948;2023-10-13T03:45:34;16.80;96.60
26541;DHT22;14206;50.202;10.948;2023-10-13T03:48:10;16.80;96.60
26541;DHT22;14206;50.202;10.948;2023-10-13T03:50:39;16.90;96.60
26541;DHT22;14206;50.202;10.948;2023-10-13T03:53:31;16.90;96.60
26541;DHT22;14206;50.202;10.948;2023-10-13T03:56:05;16.90;96.60
26541;DHT22;14206;50.202;10.948;2023-10-13T03:58:39;16.90;96.60
26541;DHT22;14206;50.202;10.948;2023-10-13T04:01:09;16.90;96.60
26541;DHT22;14206;50.202;10.948;2023-10-13T04:03:42;16.90;96.60
26541;DHT22;14206;50.202;10.948;2023-10-13T04:06:24;17.00;96.60
26541;DHT22;14206;50.202;10.948;2023-10-13T04:11:56;17.00;96.60
26541;DHT22;14206;50.202;10.948;2023-10-13T04:14:30;17.00;96.60
26541;DHT22;14206;50.202;10.948;2023-10-13T04:17:17;17.00;96.60
26541;DHT22;14206;50.202;10.948;2023-10-13T04:19:58;17.00;96.60
26541;DHT22;14206;50.202;10.948;2023-10-13T04:22:39;17.00;96.60
26541;DHT22;14206;50.202;10.948;2023-10-13T04:28:07;17.00;96.60
26541;DHT22;14206;50.202;10.948;2023-10-13T04:30:44;17.00;96.60
26541;DHT22;14206;50.202;10.948;2023-10-13T04:33:32;17.00;96.60
26541;DHT22;14206;50.202;10.948;2023-10-13T04:36:06;17.00;96.60
26541;DHT22;14206;50.202;10.948;2023-10-13T04:38:53;17.00;96.60
26541;DHT22;14206;50.202;10.948;2023-10-13T04:41:29;17.00;96.60
26541;DHT22;14206;50.202;10.948;2023-10-13T04:43:59;17.00;96.60
26541;DHT22;14206;50.202;10.948;2023-10-13T04:46:32;17.00;96.60
26541;DHT22;14206;50.202;10.948;2023-10-13T04:49:03;17.00;96.60
26541;DHT22;14206;50.202;10.948;2023-10-13T04:51:37;17.00;96.60
26541;DHT22;14206;50.202;10.948;2023-10-13T04:54:20;16.90;96.60
26541;DHT22;14206;50.202;10.948;2023-10-13T04:56:53;16.90;96.60
26541;DHT22;14206;50.202;10.948;2023-10-13T04:59:26;16.90;96.60
26541;DHT22;14206;50.202;10.948;2023-10-13T05:02:03;16.80;96.60
26541;DHT22;14206;50.202;10.948;2023-10-13T05:05:13;16.80;96.60
26541;DHT22;14206;50.202;10.948;2023-10-13T05:07:40;16.80;96.60
26541;DHT22;14206;50.202;10.948;2023-10-13T05:10:26;16.80;96.60
26541;DHT22;14206;50.202;10.948;2023-10-13T05:13:12;16.80;96.60
26541;DHT22;14206;50.202;10.948;2023-10-13T05:15:57;16.80;96.60
26541;DHT22;14206;50.202;10.948;2023-10-13T05:18:43;16.80;96.60
26541;DHT22;14206;50.202;10.948;2023-10-13T05:21:29;16.80;96.60
26541;DHT22;14206;50.202;10.948;2023-10-13T05:24:14;16.90;96.60
26541;DHT22;14206;50.202;10.948;2023-10-13T05:27:20;16.90;96.60
26541;DHT22;14206;50.202;10.948;2023-10-13T05:30:06;17.00;96.60
26541;DHT22;14206;50.202;10.948;2023-10-13T05:33:00;17.00;96.60
26541;DHT22;14206;50.202;10.948;2023-10-13T05:35:46;17.00;96.60
26541;DHT22;14206;50.202;10.948;2023-10-13T05:38:31;17.00;96.60
26541;DHT22;14206;50.202;10.948;2023-10-13T05:41:16;17.10;96.60
26541;DHT22;14206;50.202;10.948;2023-10-13T05:44:02;17.10;96.60
26541;DHT22;14206;50.202;10.948;2023-10-13T05:46:48;17.10;96.60
26541;DHT22;14206;50.202;10.948;2023-10-13T05:49:38;17.10;96.60
26541;DHT22;14206;50.202;10.948;2023-10-13T05:52:19;17.10;96.60
26541;DHT22;14206;50.202;10.948;2023-10-13T05:55:07;17.10;96.60
26541;DHT22;14206;50.202;10.948;2023-10-13T05:57:52;17.10;96.60
26541;DHT22;14206;50.202;10.948;2023-10-13T06:00:39;17.00;96.60
26541;DHT22;14206;50.202;10.948;2023-10-13T06:03:24;17.00;96.60
26541;DHT22;14206;50.202;10.948;2023-10-13T06:06:10;17.00;96.60
26541;DHT22;14206;50.202;10.948;2023-10-13T06:08:55;17.00;96.60
26541;DHT22;14206;50.202;10.948;2023-10-13T06:11:41;17.00;96.60
26541;DHT22;14206;50.202;10.948;2023-10-13T06:14:27;17.00;96.60
26541;DHT22;14206;50.202;10.948;2023-10-13T06:17:12;17.00;96.60
26541;DHT22;14206;50.202;10.948;2023-10-13T06:19:58;17.00;96.60
26541;DHT22;14206;50.202;10.948;2023-10-13T06:22:47;17.00;96.60
26541;DHT22;14206;50.202;10.948;2023-10-13T06:25:33;17.00;96.60
26541;DHT22;14206;50.202;10.948;2023-10-13T06:28:19;17.00;96.60
26541;DHT22;14206;50.202;10.948;2023-10-13T06:31:05;17.00;96.60
26541;DHT22;14206;50.202;10.948;2023-10-13T06:33:39;17.10;96.60
26541;DHT22;14206;50.202;10.948;2023-10-13T06:36:11;17.10;96.60
26541;DHT22;14206;50.202;10.948;2023-10-13T06:38:39;17.20;96.60
26541;DHT22;14206;50.202;10.948;2023-10-13T06:41:07;17.30;96.60
26541;DHT22;14206;50.202;10.948;2023-10-13T06:43:34;17.40;96.60
26541;DHT22;14206;50.202;10.948;2023-10-13T06:46:10;17.40;96.60
26541;DHT22;14206;50.202;10.948;2023-10-13T06:48:43;17.50;96.60
26541;DHT22;14206;50.202;10.948;2023-10-13T06:51:10;17.60;96.60
26541;DHT22;14206;50.202;10.948;2023-10-13T06:53:52;17.60;96.60
26541;DHT22;14206;50.202;10.948;2023-10-13T06:56:23;17.60;96.60
26541;DHT22;14206;50.202;10.948;2023-10-13T06:58:56;17.60;96.60
26541;DHT22;14206;50.202;10.948;2023-10-13T07:01:27;17.60;96.60
26541;DHT22;14206;50.202;10.948;2023-10-13T07:03:55;17.60;96.60
26541;DHT22;14206;50.202;10.948;2023-10-13T07:06:28;17.70;96.60
26541;DHT22;14206;50.202;10.948;2023-10-13T07:08:58;17.70;96.60
26541;DHT22;14206;50.202;10.948;2023-10-13T07:11:30;17.80;96.60
26541;DHT22;14206;50.202;10.948;2023-10-13T07:14:04;17.90;96.60
26541;DHT22;14206;50.202;10.948;2023-10-13T07:16:57;18.00;96.60
26541;DHT22;14206;50.202;10.948;2023-10-13T07:19:29;18.00;96.60
26541;DHT22;14206;50.202;10.948;2023-10-13T07:21:57;18.00;96.60
26541;DHT22;14206;50.202;10.948;2023-10-13T07:24:47;18.10;96.60
26541;DHT22;14206;50.202;10.948;2023-10-13T07:27:18;18.40;96.60
26541;DHT22;14206;50.202;10.948;2023-10-13T07:29:55;18.50;96.60
26541;DHT22;14206;50.202;10.948;2023-10-13T07:32:24;18.70;96.60
26541;DHT22;14206;50.202;10.948;2023-10-13T07:34:53;18.90;96.60
26541;DHT22;14206;50.202;10.948;2023-10-13T07:37:24;19.20;96.40
26541;DHT22;14206;50.202;10.948;2023-10-13T07:39:57;19.60;95.30
26541;DHT22;14206;50.202;10.948;2023-10-13T07:42:25;20.10;94.20
26541;DHT22;14206;50.202;10.948;2023-10-13T07:44:58;20.60;92.90
26541;DHT22;14206;50.202;10.948;2023-10-13T07:47:25;20.90;91.40
26541;DHT22;14206;50.202;10.948;2023-10-13T07:49:55;21.00;90.00
26541;DHT22;14206;50.202;10.948;2023-10-13T07:52:24;21.00;89.90
26541;DHT22;14206;50.202;10.948;2023-10-13T07:55:03;21.00;89.40
26541;DHT22;14206;50.202;10.948;2023-10-13T07:57:41;20.90;88.70
26541;DHT22;14206;50.202;10.948;2023-10-13T08:00:21;20.80;88.90
26541;DHT22;14206;50.202;10.948;2023-10-13T08:03:07;20.80;89.60
26541;DHT22;14206;50.202;10.948;2023-10-13T08:05:44;20.80;90.00
26541;DHT22;14206;50.202;10.948;2023-10-13T08:08:38;20.70;89.60
26541;DHT22;14206;50.202;10.948;2023-10-13T08:11:09;20.70;89.60
26541;DHT22;14206;50.202;10.948;2023-10-13T08:13:53;20.70;89.30
26541;DHT22;14206;50.202;10.948;2023-10-13T08:16:36;20.60;89.20
26541;DHT22;14206;50.202;10.948;2023-10-13T08:19:17;20.60;89.70
26541;DHT22;14206;50.202;10.948;2023-10-13T08:21:48;20.70;89.80
26541;DHT22;14206;50.202;10.948;2023-10-13T08:24:48;20.80;89.00
26541;DHT22;14206;50.202;10.948;2023-10-13T08:27:20;20.90;88.60
26541;DHT22;14206;50.202;10.948;2023-10-13T08:30:16;21.00;89.10
26541;DHT22;14206;50.202;10.948;2023-10-13T08:33:00;21.10;88.20
26541;DHT22;14206;50.202;10.948;2023-10-13T08:35:44;21.30;88.10
26541;DHT22;14206;50.202;10.948;2023-10-13T08:38:30;21.80;86.90
26541;DHT22;14206;50.202;10.948;2023-10-13T08:41:01;22.20;85.60
26541;DHT22;14206;50.202;10.948;2023-10-13T08:43:46;22.50;85.80
26541;DHT22;14206;50.202;10.948;2023-10-13T08:46:20;22.90;84.50
26541;DHT22;14206;50.202;10.948;2023-10-13T08:48:59;23.00;82.70
26541;DHT22;14206;50.202;10.948;2023-10-13T08:51:53;22.90;82.40
26541;DHT22;14206;50.202;10.948;2023-10-13T08:54:53;22.90;81.90
26541;DHT22;14206;50.202;10.948;2023-10-13T08:57:39;22.90;82.50
26541;DHT22;14206;50.202;10.948;2023-10-13T09:00:09;22.90;82.10
26541;DHT22;14206;50.202;10.948;2023-10-13T09:03:05;22.80;82.00
26541;DHT22;14206;50.202;10.948;2023-10-13T09:05:55;22.70;81.30
26541;DHT22;14206;50.202;10.948;2023-10-13T09:08:29;22.40;81.90
26541;DHT22;14206;50.202;10.948;2023-10-13T09:11:11;22.30;82.70
26541;DHT22;14206;50.202;10.948;2023-10-13T09:13:40;22.30;82.10
26541;DHT22;14206;50.202;10.948;2023-10-13T09:16:13;22.30;82.20
26541;DHT22;14206;50.202;10.948;2023-10-13T09:19:04;22.50;81.30
26541;DHT22;14206;50.202;10.948;2023-10-13T09:21:41;23.10;80.90
26541;DHT22;14206;50.202;10.948;2023-10-13T09:24:09;23.30;78.80
26541;DHT22;14206;50.202;10.948;2023-10-13T09:26:50;23.30;77.10
26541;DHT22;14206;50.202;10.948;2023-10-13T09:29:22;23.50;78.00
26541;DHT22;14206;50.202;10.948;2023-10-13T09:32:02;23.70;77.10
26541;DHT22;14206;50.202;10.948;2023-10-13T09:34:31;24.00;76.50
26541;DHT22;14206;50.202;10.948;2023-10-13T09:37:07;24.10;76.60
26541;DHT22;14206;50.202;10.948;2023-10-13T09:39:38;24.20;74.40
26541;DHT22;14206;50.202;10.948;2023-10-13T09:42:13;24.50;76.30
26541;DHT22;14206;50.202;10.948;2023-10-13T09:44:44;24.80;75.00
26541;DHT22;14206;50.202;10.948;2023-10-13T09:47:21;25.00;74.70
26541;DHT22;14206;50.202;10.948;2023-10-13T09:49:53;25.50;73.80
26541;DHT22;14206;50.202;10.948;2023-10-13T09:52:24;25.70;72.30
26541;DHT22;14206;50.202;10.948;2023-10-13T09:57:34;25.40;72.30
26541;DHT22;14206;50.202;10.948;2023-10-13T10:00:09;25.30;73.00
26541;DHT22;14206;50.202;10.948;2023-10-13T10:02:59;25.30;71.90
26541;DHT22;14206;50.202;10.948;2023-10-13T10:05:42;25.60;71.60
26541;DHT22;14206;50.202;10.948;2023-10-13T10:08:25;26.50;71.70
26541;DHT22;14206;50.202;10.948;2023-10-13T10:14:16;28.40;65.60
26541;DHT22;14206;50.202;10.948;2023-10-13T10:19:31;29.80;61.50
26541;DHT22;14206;50.202;10.948;2023-10-13T10:22:03;30.40;60.80
26541;DHT22;14206;50.202;10.948;2023-10-13T10:24:39;30.90;60.50
26541;DHT22;14206;50.202;10.948;2023-10-13T10:27:06;31.40;59.20
26541;DHT22;14206;50.202;10.948;2023-10-13T10:29:32;31.90;57.70
26541;DHT22;14206;50.202;10.948;2023-10-13T10:32:01;32.00;56.00
26541;DHT22;14206;50.202;10.948;2023-10-13T10:34:38;32.30;57.70
26541;DHT22;14206;50.202;10.948;2023-10-13T10:37:06;32.70;55.00
26541;DHT22;14206;50.202;10.948;2023-10-13T10:39:36;32.70;55.60
26541;DHT22;14206;50.202;10.948;2023-10-13T10:42:14;33.00;56.50
26541;DHT22;14206;50.202;10.948;2023-10-13T10:44:56;33.70;55.20
26541;DHT22;14206;50.202;10.948;2023-10-13T10:47:25;34.00;53.40
26541;DHT22;14206;50.202;10.948;2023-10-13T10:49:59;33.90;53.40
26541;DHT22;14206;50.202;10.948;2023-10-13T10:52:46;33.70;52.30
26541;DHT22;14206;50.202;10.948;2023-10-13T10:55:13;33.00;52.90
26541;DHT22;14206;50.202;10.948;2023-10-13T10:57:47;32.10;53.70
26541;DHT22;14206;50.202;10.948;2023-10-13T11:00:25;31.10;55.20
26541;DHT22;14206;50.202;10.948;2023-10-13T11:03:08;30.20;57.40
26541;DHT22;14206;50.202;10.948;2023-10-13T11:05:47;29.50;59.10
26541;DHT22;14206;50.202;10.948;2023-10-13T11:08:22;29.20;60.10
26541;DHT22;14206;50.202;10.948;2023-10-13T11:11:01;29.10;60.80
26541;DHT22;14206;50.202;10.948;2023-10-13T11:13:42;29.50;60.10
26541;DHT22;14206;50.202;10.948;2023-10-13T11:16:23;30.10;57.90
26541;DHT22;14206;50.202;10.948;2023-10-13T11:19:04;30.20;57.80
26541;DHT22;14206;50.202;10.948;2023-10-13T11:21:34;30.20;59.40
26541;DHT22;14206;50.202;10.948;2023-10-13T11:24:04;30.00;59.50
26541;DHT22;14206;50.202;10.948;2023-10-13T11:26:38;29.50;60.80
26541;DHT22;14206;50.202;10.948;2023-10-13T11:29:19;28.80;60.10
26541;DHT22;14206;50.202;10.948;2023-10-13T11:31:57;28.10;62.30
26541;DHT22;14206;50.202;10.948;2023-10-13T11:34:27;27.50;64.10
26541;DHT22;14206;50.202;10.948;2023-10-13T11:37:07;27.20;64.70
26541;DHT22;14206;50.202;10.948;2023-10-13T11:39:52;27.10;65.40
26541;DHT22;14206;50.202;10.948;2023-10-13T11:42:19;26.90;65.80
26541;DHT22;14206;50.202;10.948;2023-10-13T11:44:47;26.70;66.10
26541;DHT22;14206;50.202;10.948;2023-10-13T11:47:28;26.50;66.70
26541;DHT22;14206;50.202;10.948;2023-10-13T11:50:14;26.30;67.10
26541;DHT22;14206;50.202;10.948;2023-10-13T11:52:40;26.10;67.60
26541;DHT22;14206;50.202;10.948;2023-10-13T11:55:07;25.90;67.90
26541;DHT22;14206;50.202;10.948;2023-10-13T11:57:34;25.90;69.80
26541;DHT22;14206;50.202;10.948;2023-10-13T12:00:01;25.90;69.30
26541;DHT22;14206;50.202;10.948;2023-10-13T12:02:48;25.90;69.00
26541;DHT22;14206;50.202;10.948;2023-10-13T12:05:33;25.90;69.10
26541;DHT22;14206;50.202;10.948;2023-10-13T12:08:16;25.90;68.70
26541;DHT22;14206;50.202;10.948;2023-10-13T12:10:49;25.80;69.00
26541;DHT22;14206;50.202;10.948;2023-10-13T12:13:26;25.80;68.80
26541;DHT22;14206;50.202;10.948;2023-10-13T12:15:53;25.80;68.00
26541;DHT22;14206;50.202;10.948;2023-10-13T12:18:23;25.90;68.40
26541;DHT22;14206;50.202;10.948;2023-10-13T12:20:50;26.00;67.90
26541;DHT22;14206;50.202;10.948;2023-10-13T12:23:17;26.00;67.50
26541;DHT22;14206;50.202;10.948;2023-10-13T12:25:46;26.00;67.70
26541;DHT22;14206;50.202;10.948;2023-10-13T12:28:24;26.00;67.20
26541;DHT22;14206;50.202;10.948;2023-10-13T12:30:55;26.00;66.40
26541;DHT22;14206;50.202;10.948;2023-10-13T12:33:25;26.00;66.70
26541;DHT22;14206;50.202;10.948;2023-10-13T12:35:56;25.90;66.90
26541;DHT22;14206;50.202;10.948;2023-10-13T12:38:38;25.90;67.40
26541;DHT22;14206;50.202;10.948;2023-10-13T12:41:15;25.90;68.10
26541;DHT22;14206;50.202;10.948;2023-10-13T12:44:03;25.90;68.40
26541;DHT22;14206;50.202;10.948;2023-10-13T12:46:53;26.10;68.50
26541;DHT22;14206;50.202;10.948;2023-10-13T12:49:39;26.30;68.00
26541;DHT22;14206;50.202;10.948;2023-10-13T12:52:10;26.40;67.40
26541;DHT22;14206;50.202;10.948;2023-10-13T12:54:43;26.40;66.80
26541;DHT22;14206;50.202;10.948;2023-10-13T12:57:14;26.50;67.60
26541;DHT22;14206;50.202;10.948;2023-10-13T12:59:43;26.50;67.00
26541;DHT22;14206;50.202;10.948;2023-10-13T13:02:10;26.40;66.70
26541;DHT22;14206;50.202;10.948;2023-10-13T13:04:42;26.40;65.90
26541;DHT22;14206;50.202;10.948;2023-10-13T13:07:11;26.30;64.70
26541;DHT22;14206;50.202;10.948;2023-10-13T13:09:41;26.20;63.80
26541;DHT22;14206;50.202;10.948;2023-10-13T13:12:08;26.10;64.40
26541;DHT22;14206;50.202;10.948;2023-10-13T13:14:39;25.90;64.70
26541;DHT22;14206;50.202;10.948;2023-10-13T13:17:13;25.90;65.10
26541;DHT22;14206;50.202;10.948;2023-10-13T13:19:40;25.80;65.30
26541;DHT22;14206;50.202;10.948;2023-10-13T13:22:09;25.80;65.90
26541;DHT22;14206;50.202;10.948;2023-10-13T13:24:39;25.80;64.80
26541;DHT22;14206;50.202;10.948;2023-10-13T13:27:16;25.70;65.30
26541;DHT22;14206;50.202;10.948;2023-10-13T13:29:49;25.70;65.60
26541;DHT22;14206;50.202;10.948;2023-10-13T13:32:16;25.70;65.50
26541;DHT22;14206;50.202;10.948;2023-10-13T13:34:46;25.70;66.10
26541;DHT22;14206;50.202;10.948;2023-10-13T13:37:22;25.70;65.80
26541;DHT22;14206;50.202;10.948;2023-10-13T13:39:48;25.80;66.10
26541;DHT22;14206;50.202;10.948;2023-10-13T13:42:19;25.90;66.10
26541;DHT22;14206;50.202;10.948;2023-10-13T13:44:47;26.10;65.90
26541;DHT22;14206;50.202;10.948;2023-10-13T13:47:14;26.20;66.00
26541;DHT22;14206;50.202;10.948;2023-10-13T13:49:42;26.20;64.70
26541;DHT22;14206;50.202;10.948;2023-10-13T13:52:19;26.20;64.30
26541;DHT22;14206;50.202;10.948;2023-10-13T13:54:54;26.20;64.50
26541;DHT22;14206;50.202;10.948;2023-10-13T13:57:21;26.20;65.60
26541;DHT22;14206;50.202;10.948;2023-10-13T13:59:48;26.10;65.70
26541;DHT22;14206;50.202;10.948;2023-10-13T14:02:16;26.10;65.10
26541;DHT22;14206;50.202;10.948;2023-10-13T14:04:47;26.00;64.90
26541;DHT22;14206;50.202;10.948;2023-10-13T14:07:18;25.90;65.50
26541;DHT22;14206;50.202;10.948;2023-10-13T14:09:51;25.90;65.30
26541;DHT22;14206;50.202;10.948;2023-10-13T14:12:19;25.90;65.40
26541;DHT22;14206;50.202;10.948;2023-10-13T14:15:05;25.80;65.50
26541;DHT22;14206;50.202;10.948;2023-10-13T14:17:49;25.80;65.30
26541;DHT22;14206;50.202;10.948;2023-10-13T14:20:16;25.80;65.60
26541;DHT22;14206;50.202;10.948;2023-10-13T14:22:46;25.90;64.50
26541;DHT22;14206;50.202;10.948;2023-10-13T14:25:16;25.90;64.00
26541;DHT22;14206;50.202;10.948;2023-10-13T14:27:45;26.00;64.70
26541;DHT22;14206;50.202;10.948;2023-10-13T14:30:12;26.10;64.70
26541;DHT22;14206;50.202;10.948;2023-10-13T14:32:49;26.10;65.20
26541;DHT22;14206;50.202;10.948;2023-10-13T14:35:16;26.00;64.90
26541;DHT22;14206;50.202;10.948;2023-10-13T14:37:43;26.00;64.70
26541;DHT22;14206;50.202;10.948;2023-10-13T14:40:10;26.00;66.60
26541;DHT22;14206;50.202;10.948;2023-10-13T14:42:42;25.90;68.80
26541;DHT22;14206;50.202;10.948;2023-10-13T14:45:09;25.90;68.60
26541;DHT22;14206;50.202;10.948;2023-10-13T14:47:40;25.90;68.50
26541;DHT22;14206;50.202;10.948;2023-10-13T14:50:09;25.80;66.80
26541;DHT22;14206;50.202;10.948;2023-10-13T14:52:49;25.70;66.40
26541;DHT22;14206;50.202;10.948;2023-10-13T14:55:17;25.60;67.00
26541;DHT22;14206;50.202;10.948;2023-10-13T14:57:48;25.60;66.90
26541;DHT22;14206;50.202;10.948;2023-10-13T15:00:17;25.50;66.70
26541;DHT22;14206;50.202;10.948;2023-10-13T15:02:52;25.50;68.50
26541;DHT22;14206;50.202;10.948;2023-10-13T15:05:20;25.40;69.70
26541;DHT22;14206;50.202;10.948;2023-10-13T15:07:47;25.40;70.40
26541;DHT22;14206;50.202;10.948;2023-10-13T15:10:15;25.20;69.90
26541;DHT22;14206;50.202;10.948;2023-10-13T15:12:43;25.10;69.30
26541;DHT22;14206;50.202;10.948;2023-10-13T15:15:13;25.10;70.60
26541;DHT22;14206;50.202;10.948;2023-10-13T15:17:40;25.00;72.80
26541;DHT22;14206;50.202;10.948;2023-10-13T15:20:08;24.90;73.00
26541;DHT22;14206;50.202;10.948;2023-10-13T15:22:36;24.90;73.50
26541;DHT22;14206;50.202;10.948;2023-10-13T15:25:05;24.70;74.40
26541;DHT22;14206;50.202;10.948;2023-10-13T15:27:44;24.60;74.80
26541;DHT22;14206;50.202;10.948;2023-10-13T15:30:16;24.50;75.40
26541;DHT22;14206;50.202;10.948;2023-10-13T15:32:57;24.40;75.50
26541;DHT22;14206;50.202;10.948;2023-10-13T15:35:24;24.30;76.10
26541;DHT22;14206;50.202;10.948;2023-10-13T15:37:55;24.20;76.50
26541;DHT22;14206;50.202;10.948;2023-10-13T15:40:23;24.10;76.60
26541;DHT22;14206;50.202;10.948;2023-10-13T15:42:50;24.10;77.00
26541;DHT22;14206;50.202;10.948;2023-10-13T15:45:17;24.00;77.10
26541;DHT22;14206;50.202;10.948;2023-10-13T15:47:45;23.90;77.20
26541;DHT22;14206;50.202;10.948;2023-10-13T15:50:39;23.80;77.80
26541;DHT22;14206;50.202;10.948;2023-10-13T15:53:07;23.70;77.90
26541;DHT22;14206;50.202;10.948;2023-10-13T15:55:35;23.60;77.40
26541;DHT22;14206;50.202;10.948;2023-10-13T15:58:04;23.50;77.70
26541;DHT22;14206;50.202;10.948;2023-10-13T16:00:37;23.40;78.60
26541;DHT22;14206;50.202;10.948;2023-10-13T16:03:05;23.40;78.80
26541;DHT22;14206;50.202;10.948;2023-10-13T16:05:39;23.20;78.70
26541;DHT22;14206;50.202;10.948;2023-10-13T16:08:09;23.20;78.10
26541;DHT22;14206;50.202;10.948;2023-10-13T16:10:40;23.10;80.10
26541;DHT22;14206;50.202;10.948;2023-10-13T16:13:08;23.00;79.70
26541;DHT22;14206;50.202;10.948;2023-10-13T16:15:43;22.90;79.60
26541;DHT22;14206;50.202;10.948;2023-10-13T16:18:11;22.80;79.20